Time;durP1;ratioP1;P1;durP2;ratioP2;P2;SDS_P1;SDS_P2;PMS_P1;PMS_P2;Temp;Humidity;BMP_temperature;BMP_pressure;BME280_temperature;BME280_humidity;BME280_pressure;Samples;Min_cycle;Max_cycle;Signal;HPM_P1;HPM_P2
2023/10/27 00:00:35;;;;;;;2.90;1.20;;;22.80;45.30;;;;;;5010551;28;20286;-38
2023/10/27 00:03:02;;;;;;;2.97;1.10;;;22.80;44.90;;;;;;5011621;28;20199;-38
2023/10/27 00:05:28;;;;;;;2.67;1.30;;;22.80;44.90;;;;;;5009769;28;20262;-38
2023/10/27 00:07:54;;;;;;;1.58;1.20;;;22.80;44.90;;;;;;5010772;28;20209;-36
2023/10/27 00:10:21;;;;;;;1.40;1.25;;;22.80;44.90;;;;;;5009005;28;20214;-38
2023/10/27 00:12:47;;;;;;;2.22;1.20;;;22.80;44.90;;;;;;5003288;28;20235;-37
2023/10/27 00:15:14;;;;;;;1.38;1.27;;;22.80;44.90;;;;;;5009763;28;20207;-38
2023/10/27 00:17:40;;;;;;;2.05;1.10;;;22.80;44.90;;;;;;5010620;28;20223;-37
2023/10/27 00:20:07;;;;;;;1.30;1.20;;;22.80;44.80;;;;;;5009699;28;20211;-37
2023/10/27 00:22:35;;;;;;;1.45;1.10;;;22.80;44.90;;;;;;5011419;28;20196;-35
2023/10/27 00:25:01;;;;;;;1.42;1.20;;;22.80;44.90;;;;;;5011050;28;21697;-38
2023/10/27 00:27:28;;;;;;;1.13;1.02;;;22.80;44.90;;;;;;5010379;28;20245;-37
2023/10/27 00:29:54;;;;;;;1.30;1.15;;;22.80;44.90;;;;;;5001979;28;20210;-37
2023/10/27 00:32:21;;;;;;;1.52;1.13;;;22.80;44.90;;;;;;5008394;28;20211;-38
2023/10/27 00:34:47;;;;;;;1.63;1.23;;;22.80;44.90;;;;;;5011257;28;20211;-38
2023/10/27 00:37:14;;;;;;;1.52;1.33;;;22.80;44.90;;;;;;5010736;28;22157;-37
2023/10/27 00:39:40;;;;;;;1.95;1.38;;;22.70;44.90;;;;;;5008947;28;20302;-38
2023/10/27 00:42:07;;;;;;;1.10;0.98;;;22.80;45.00;;;;;;5013158;28;20292;-38
2023/10/27 00:44:33;;;;;;;1.40;1.30;;;22.80;45.00;;;;;;5014966;28;20294;-35
2023/10/27 00:46:59;;;;;;;3.63;1.38;;;22.80;45.00;;;;;;5009164;28;20406;-38
2023/10/27 00:49:27;;;;;;;1.30;1.20;;;22.80;44.90;;;;;;5013431;28;20205;-38
2023/10/27 00:51:54;;;;;;;0.80;0.80;;;22.80;44.90;;;;;;5012784;28;20578;-38
2023/10/27 00:54:20;;;;;;;1.65;1.30;;;22.70;44.80;;;;;;5014148;28;20234;-37
2023/10/27 00:56:47;;;;;;;2.38;0.93;;;22.80;44.90;;;;;;5014440;28;20231;-37
2023/10/27 00:59:13;;;;;;;1.85;1.30;;;22.80;44.90;;;;;;5013270;28;20214;-38
2023/10/27 01:01:40;;;;;;;1.20;1.10;;;22.80;44.90;;;;;;5013495;28;20203;-37
2023/10/27 01:04:06;;;;;;;1.70;1.20;;;22.80;45.00;;;;;;5009255;28;20209;-38
2023/10/27 01:06:33;;;;;;;1.30;1.13;;;22.80;44.90;;;;;;5011522;28;20219;-38
2023/10/27 01:08:59;;;;;;;1.02;1.02;;;22.80;44.90;;;;;;5012410;28;20202;-38
2023/10/27 01:11:26;;;;;;;1.23;1.10;;;22.80;44.90;;;;;;5014097;28;20519;-37
2023/10/27 01:13:52;;;;;;;1.00;1.00;;;22.70;44.80;;;;;;5012871;28;20230;-34
2023/10/27 01:16:18;;;;;;;1.08;1.08;;;22.80;44.90;;;;;;5013568;28;20223;-38
2023/10/27 01:18:45;;;;;;;1.70;1.10;;;22.80;44.90;;;;;;5013062;28;20207;-38
2023/10/27 01:21:11;;;;;;;1.35;1.23;;;22.80;44.90;;;;;;5009506;28;20329;-38
2023/10/27 01:23:38;;;;;;;1.63;1.27;;;22.80;44.90;;;;;;5011121;28;20286;-38
2023/10/27 01:26:04;;;;;;;3.03;0.90;;;22.80;44.90;;;;;;5012254;28;20232;-37
2023/10/27 01:28:31;;;;;;;1.20;1.10;;;22.70;44.80;;;;;;5013671;28;20234;-38
2023/10/27 01:30:57;;;;;;;1.15;1.00;;;22.80;44.90;;;;;;5013050;28;20204;-38
2023/10/27 01:33:24;;;;;;;1.30;1.17;;;22.80;44.90;;;;;;5012618;28;20230;-38
2023/10/27 01:35:50;;;;;;;3.22;1.60;;;22.80;44.90;;;;;;5011606;28;20241;-38
2023/10/27 01:38:17;;;;;;;1.40;1.10;;;22.70;44.80;;;;;;5007875;28;20234;-37
2023/10/27 01:40:43;;;;;;;1.30;1.20;;;22.80;44.90;;;;;;5011784;28;20275;-38
2023/10/27 01:43:09;;;;;;;1.25;1.20;;;22.80;44.90;;;;;;5012212;28;20205;-34
2023/10/27 01:45:36;;;;;;;0.93;0.88;;;22.80;44.90;;;;;;5011122;28;20229;-33
2023/10/27 01:48:02;;;;;;;1.10;1.00;;;22.70;44.80;;;;;;5013496;28;20214;-32
2023/10/27 01:50:29;;;;;;;1.10;1.00;;;22.80;44.90;;;;;;5012653;28;20207;-37
2023/10/27 01:52:56;;;;;;;1.00;0.90;;;22.80;44.90;;;;;;5011397;28;20290;-37
2023/10/27 01:55:24;;;;;;;1.80;1.13;;;22.70;44.80;;;;;;5011971;28;20310;-37
2023/10/27 01:57:50;;;;;;;1.30;1.00;;;22.80;45.00;;;;;;5003465;28;20199;-38
2023/10/27 02:00:17;;;;;;;1.65;1.08;;;22.70;44.90;;;;;;5011823;28;20207;-38
2023/10/27 02:02:43;;;;;;;1.13;0.82;;;22.70;44.80;;;;;;5011543;28;20203;-38
2023/10/27 02:05:10;;;;;;;1.45;1.20;;;22.70;44.90;;;;;;5012097;28;20203;-38
2023/10/27 02:07:36;;;;;;;1.38;1.25;;;22.70;44.90;;;;;;5012164;28;20293;-37
2023/10/27 02:10:03;;;;;;;2.22;1.02;;;22.70;44.90;;;;;;5011479;28;20672;-38
2023/10/27 02:12:29;;;;;;;0.80;0.80;;;22.70;44.90;;;;;;5013023;28;20637;-38
2023/10/27 02:14:55;;;;;;;1.02;1.00;;;22.70;44.90;;;;;;5011831;28;20628;-38
2023/10/27 02:17:22;;;;;;;1.10;1.00;;;22.70;44.80;;;;;;5010193;28;20215;-37
2023/10/27 02:19:50;;;;;;;2.10;1.02;;;22.70;44.80;;;;;;5011549;28;20295;-37
2023/10/27 02:22:17;;;;;;;1.40;1.30;;;22.70;44.90;;;;;;5012917;28;20211;-38
2023/10/27 02:24:43;;;;;;;1.30;1.17;;;22.70;44.90;;;;;;5012293;28;20209;-38
2023/10/27 02:27:10;;;;;;;0.95;0.93;;;22.80;45.00;;;;;;5008107;28;20234;-38
2023/10/27 02:29:36;;;;;;;1.42;1.30;;;22.70;44.90;;;;;;5010616;28;20207;-38
2023/10/27 02:32:03;;;;;;;1.17;1.08;;;22.70;44.90;;;;;;5011561;28;20294;-38
2023/10/27 02:34:29;;;;;;;2.08;1.13;;;22.70;45.50;;;;;;5011748;28;20231;-37
2023/10/27 02:36:56;;;;;;;1.20;1.10;;;22.80;44.90;;;;;;5007452;28;20226;-37
2023/10/27 02:39:22;;;;;;;1.23;0.98;;;22.80;44.90;;;;;;5009666;28;20242;-36
2023/10/27 02:41:48;;;;;;;1.13;0.77;;;22.80;44.90;;;;;;5009125;28;20203;-35
2023/10/27 02:44:15;;;;;;;1.10;1.00;;;22.70;44.80;;;;;;5008487;28;20679;-34
2023/10/27 02:46:41;;;;;;;2.35;1.33;;;22.70;44.90;;;;;;5009913;28;20757;-32
2023/10/27 02:49:08;;;;;;;2.30;1.00;;;22.70;44.90;;;;;;5009411;28;20571;-34
2023/10/27 02:51:34;;;;;;;1.50;1.00;;;22.70;44.90;;;;;;5011618;28;20581;-32
2023/10/27 02:54:01;;;;;;;1.58;0.93;;;22.70;44.90;;;;;;5011793;28;20659;-34
2023/10/27 02:56:28;;;;;;;1.20;0.90;;;22.80;44.90;;;;;;5012583;28;20230;-32
2023/10/27 02:58:54;;;;;;;1.25;0.90;;;22.80;45.00;;;;;;5010264;28;20195;-38
2023/10/27 03:01:20;;;;;;;0.95;0.80;;;22.70;44.90;;;;;;5009845;28;20195;-38
2023/10/27 03:03:47;;;;;;;1.00;0.95;;;22.70;44.80;;;;;;5011909;28;20199;-36
2023/10/27 03:06:13;;;;;;;1.38;1.00;;;22.70;44.80;;;;;;5009702;28;20223;-36
2023/10/27 03:08:40;;;;;;;1.08;0.98;;;22.70;44.80;;;;;;5009518;28;20196;-38
2023/10/27 03:11:08;;;;;;;1.65;1.20;;;22.70;44.80;;;;;;5011158;28;20199;-38
2023/10/27 03:13:35;;;;;;;1.20;1.00;;;22.80;45.00;;;;;;5011918;28;20281;-37
2023/10/27 03:16:01;;;;;;;2.47;0.93;;;22.70;44.90;;;;;;5009750;28;20219;-39
2023/10/27 03:18:28;;;;;;;1.00;1.00;;;22.70;44.80;;;;;;5007526;28;20239;-38
2023/10/27 03:20:54;;;;;;;0.90;0.90;;;22.80;45.00;;;;;;5012298;28;20206;-37
2023/10/27 03:23:21;;;;;;;1.70;0.90;;;22.70;44.90;;;;;;5011993;28;20233;-38
2023/10/27 03:25:47;;;;;;;1.95;1.00;;;22.70;44.80;;;;;;5008383;28;20249;-37
2023/10/27 03:28:13;;;;;;;1.27;0.90;;;22.70;44.90;;;;;;5010720;28;20211;-37
2023/10/27 03:30:40;;;;;;;1.88;1.52;;;22.70;44.90;;;;;;5010682;28;20206;-37
2023/10/27 03:33:06;;;;;;;1.15;1.00;;;22.70;44.90;;;;;;5011232;28;20199;-38
2023/10/27 03:35:33;;;;;;;1.58;0.90;;;22.80;45.00;;;;;;5008330;28;20225;-36
2023/10/27 03:38:00;;;;;;;1.30;0.93;;;22.70;45.00;;;;;;5011398;28;20203;-38
2023/10/27 03:40:26;;;;;;;0.95;0.95;;;22.70;45.00;;;;;;5010391;28;20218;-38
2023/10/27 03:42:53;;;;;;;1.30;0.88;;;22.70;45.00;;;;;;5009793;28;20214;-37
2023/10/27 03:45:19;;;;;;;0.90;0.90;;;22.70;45.00;;;;;;5008194;28;20226;-38
2023/10/27 03:47:46;;;;;;;1.08;0.93;;;22.80;45.00;;;;;;5010954;28;20685;-38
2023/10/27 03:50:12;;;;;;;1.00;0.80;;;22.80;45.00;;;;;;5007800;28;20258;-37
2023/10/27 03:52:39;;;;;;;0.98;0.90;;;22.70;45.00;;;;;;5005974;28;20286;-38
2023/10/27 03:55:07;;;;;;;1.15;1.08;;;22.80;45.00;;;;;;5009285;28;20235;-38
2023/10/27 03:57:34;;;;;;;1.20;1.10;;;22.70;45.00;;;;;;5009911;28;20209;-37
2023/10/27 04:00:00;;;;;;;1.25;1.15;;;22.70;45.00;;;;;;5011449;28;20282;-37
2023/10/27 04:02:27;;;;;;;1.27;1.15;;;22.70;45.00;;;;;;5007536;28;20199;-37
2023/10/27 04:04:54;;;;;;;0.80;0.80;;;22.70;45.00;;;;;;5010956;28;20749;-38
2023/10/27 04:07:20;;;;;;;0.90;0.90;;;22.70;45.00;;;;;;5009191;28;20682;-37
2023/10/27 04:09:47;;;;;;;1.30;1.10;;;22.70;45.00;;;;;;5005223;28;20854;-37
2023/10/27 04:12:13;;;;;;;1.00;0.90;;;22.70;45.00;;;;;;5010950;28;20627;-37
2023/10/27 04:14:40;;;;;;;1.23;1.10;;;22.70;45.00;;;;;;5010160;28;20313;-37
2023/10/27 04:17:06;;;;;;;1.33;1.10;;;22.70;44.90;;;;;;5010694;28;20225;-38
2023/10/27 04:19:33;;;;;;;1.15;0.75;;;22.70;45.00;;;;;;5013365;28;20241;-36
2023/10/27 04:21:59;;;;;;;0.98;0.98;;;22.70;45.00;;;;;;5015156;28;20290;-38
2023/10/27 04:24:26;;;;;;;1.35;0.82;;;22.70;45.00;;;;;;5014987;28;20217;-36
2023/10/27 04:26:52;;;;;;;1.25;1.00;;;22.70;45.30;;;;;;5008152;28;20326;-37
2023/10/27 04:29:19;;;;;;;1.00;1.00;;;22.70;45.20;;;;;;5012381;28;20207;-38
2023/10/27 04:31:45;;;;;;;1.27;1.00;;;22.70;45.20;;;;;;5012296;28;20226;-37
2023/10/27 04:34:11;;;;;;;1.98;1.00;;;22.70;45.20;;;;;;5014349;28;20328;-38
2023/10/27 04:36:38;;;;;;;1.10;1.00;;;22.70;45.80;;;;;;5013452;28;20302;-38
2023/10/27 04:39:04;;;;;;;0.80;0.80;;;22.80;45.20;;;;;;5014167;28;20298;-32
2023/10/27 04:41:31;;;;;;;0.70;0.70;;;22.70;45.10;;;;;;5013801;28;20286;-32
2023/10/27 04:43:58;;;;;;;2.15;0.90;;;22.70;45.10;;;;;;5010167;28;20215;-34
2023/10/27 04:46:24;;;;;;;0.98;0.80;;;22.70;45.10;;;;;;5011155;28;20233;-37
2023/10/27 04:48:51;;;;;;;1.10;1.00;;;22.70;45.10;;;;;;5013250;28;20289;-33
2023/10/27 04:51:17;;;;;;;1.02;0.98;;;22.80;45.20;;;;;;5011238;28;20206;-38
2023/10/27 04:53:44;;;;;;;1.45;1.00;;;22.70;45.10;;;;;;5013603;28;20214;-36
2023/10/27 04:56:10;;;;;;;1.13;0.90;;;22.70;45.10;;;;;;5012786;28;20325;-36
2023/10/27 04:58:38;;;;;;;0.77;0.77;;;22.70;45.10;;;;;;5014152;28;20217;-37
2023/10/27 05:01:05;;;;;;;1.15;0.90;;;22.70;45.20;;;;;;5010444;28;20199;-38
2023/10/27 05:03:31;;;;;;;1.75;1.23;;;22.70;45.10;;;;;;5013309;28;20282;-38
2023/10/27 05:05:58;;;;;;;2.13;1.13;;;22.70;45.10;;;;;;5013780;28;20306;-38
2023/10/27 05:08:24;;;;;;;0.98;0.90;;;22.70;45.10;;;;;;5011835;28;20202;-38
2023/10/27 05:10:52;;;;;;;1.00;0.90;;;22.70;45.10;;;;;;5012032;28;20200;-37
2023/10/27 05:13:18;;;;;;;2.22;0.98;;;22.70;45.10;;;;;;5013718;28;20207;-38
2023/10/27 05:15:44;;;;;;;1.45;0.90;;;22.70;45.10;;;;;;5012119;28;20231;-38
2023/10/27 05:18:11;;;;;;;1.27;0.90;;;22.70;45.20;;;;;;5008866;28;20203;-35
2023/10/27 05:20:38;;;;;;;0.90;0.90;;;22.70;45.10;;;;;;5013143;28;20214;-34
2023/10/27 05:23:04;;;;;;;1.20;0.90;;;22.70;45.20;;;;;;5012522;28;20226;-34
2023/10/27 05:25:31;;;;;;;0.70;0.70;;;22.70;45.20;;;;;;5012971;28;20306;-34
2023/10/27 05:27:57;;;;;;;1.30;0.90;;;22.70;45.10;;;;;;5012966;28;20235;-33
2023/10/27 05:30:23;;;;;;;1.75;0.90;;;22.70;45.10;;;;;;5011825;28;20279;-36
2023/10/27 05:32:50;;;;;;;0.70;0.70;;;22.70;45.20;;;;;;5012984;28;20199;-35
2023/10/27 05:35:16;;;;;;;1.63;0.95;;;22.70;45.10;;;;;;5008123;28;20245;-32
2023/10/27 05:37:43;;;;;;;1.88;1.00;;;22.70;45.10;;;;;;5013805;28;20211;-32
2023/10/27 05:40:10;;;;;;;1.80;0.80;;;22.70;45.20;;;;;;5012733;28;20215;-37
2023/10/27 05:42:36;;;;;;;1.95;1.02;;;22.70;45.20;;;;;;5011213;28;20210;-38
2023/10/27 05:45:03;;;;;;;1.73;0.90;;;22.70;45.30;;;;;;5011271;28;20311;-37
2023/10/27 05:47:29;;;;;;;1.77;0.90;;;22.70;45.80;;;;;;5012077;28;20692;-38
2023/10/27 05:49:57;;;;;;;2.22;0.93;;;22.70;45.20;;;;;;5012201;28;20306;-38
2023/10/27 05:52:23;;;;;;;2.65;0.90;;;22.70;45.10;;;;;;5006242;28;20213;-36
2023/10/27 05:54:50;;;;;;;1.00;0.90;;;22.70;45.20;;;;;;5012333;28;20338;-36
2023/10/27 05:57:16;;;;;;;0.70;0.70;;;22.70;45.20;;;;;;5011891;28;20205;-37
2023/10/27 05:59:42;;;;;;;1.33;1.00;;;22.70;45.20;;;;;;5010561;28;20213;-35
2023/10/27 06:02:09;;;;;;;1.08;1.00;;;22.70;45.20;;;;;;5006339;28;20314;-38
2023/10/27 06:04:36;;;;;;;1.52;1.00;;;22.70;45.20;;;;;;5010555;28;20231;-36
2023/10/27 06:07:03;;;;;;;1.90;1.00;;;22.70;45.10;;;;;;5011712;28;20281;-37
2023/10/27 06:09:31;;;;;;;1.30;0.90;;;22.70;45.10;;;;;;5007427;28;20207;-38
2023/10/27 06:11:57;;;;;;;2.10;1.00;;;22.70;45.20;;;;;;5011513;28;20207;-35
2023/10/27 06:14:24;;;;;;;1.15;1.00;;;22.70;45.10;;;;;;5011895;28;20227;-36
2023/10/27 06:16:50;;;;;;;1.45;0.90;;;22.70;45.10;;;;;;5012157;28;20671;-35
2023/10/27 06:19:17;;;;;;;1.00;1.00;;;22.70;45.20;;;;;;5006393;28;21535;-32
2023/10/27 06:21:43;;;;;;;1.23;0.80;;;22.70;45.20;;;;;;5010177;28;20261;-37
2023/10/27 06:24:10;;;;;;;0.80;0.80;;;22.70;45.20;;;;;;5007705;28;20233;-32
2023/10/27 06:26:36;;;;;;;1.58;0.80;;;22.70;45.10;;;;;;5009894;28;20203;-38
2023/10/27 06:29:03;;;;;;;1.23;1.00;;;22.70;45.20;;;;;;5011322;28;20667;-38
2023/10/27 06:31:29;;;;;;;1.95;1.00;;;22.70;45.10;;;;;;5009547;28;20674;-38
2023/10/27 06:33:56;;;;;;;1.63;1.02;;;22.70;45.40;;;;;;5008472;28;20199;-38
2023/10/27 06:36:22;;;;;;;2.70;1.08;;;22.70;45.50;;;;;;5007126;28;20249;-36
2023/10/27 06:38:49;;;;;;;3.15;1.20;;;22.60;45.60;;;;;;5002197;28;20290;-37
2023/10/27 06:41:15;;;;;;;2.42;1.02;;;22.60;45.70;;;;;;5010922;28;20366;-37
2023/10/27 06:43:42;;;;;;;2.25;1.02;;;22.60;45.80;;;;;;5009047;28;20622;-38
2023/10/27 06:46:08;;;;;;;0.75;0.75;;;22.60;45.90;;;;;;5012408;28;20294;-39
2023/10/27 06:48:35;;;;;;;0.93;0.93;;;22.60;45.90;;;;;;5007710;28;20199;-34
2023/10/27 06:51:01;;;;;;;2.15;0.90;;;22.60;45.80;;;;;;5009906;28;20217;-36
2023/10/27 06:53:28;;;;;;;1.10;1.00;;;22.60;45.80;;;;;;5003396;28;20203;-35
2023/10/27 06:55:55;;;;;;;1.40;1.00;;;22.60;45.90;;;;;;5009728;28;20230;-35
2023/10/27 06:58:21;;;;;;;2.17;1.00;;;22.60;45.90;;;;;;5007212;28;20214;-33
2023/10/27 07:00:47;;;;;;;1.70;1.15;;;22.60;45.90;;;;;;5006459;28;20238;-31
2023/10/27 07:03:14;;;;;;;1.25;0.85;;;22.60;46.00;;;;;;5010615;28;20723;-32
2023/10/27 07:05:40;;;;;;;2.53;1.00;;;22.60;45.90;;;;;;5010554;28;20602;-33
2023/10/27 07:08:09;;;;;;;1.50;1.00;;;22.60;45.90;;;;;;5010092;28;20203;-36
2023/10/27 07:10:35;;;;;;;2.15;1.27;;;22.60;46.00;;;;;;5011362;28;20202;-38
2023/10/27 07:13:02;;;;;;;1.80;0.85;;;22.60;45.90;;;;;;5008422;28;20195;-41
2023/10/27 07:15:29;;;;;;;3.38;1.00;;;22.60;45.80;;;;;;5001827;28;20244;-37
2023/10/27 07:17:55;;;;;;;3.50;1.30;;;22.70;46.30;;;;;;5007568;28;20215;-36
2023/10/27 07:20:21;;;;;;;1.98;0.82;;;22.70;46.10;;;;;;5009558;28;20290;-39
2023/10/27 07:22:48;;;;;;;3.42;1.05;;;22.70;46.30;;;;;;5005082;28;20695;-37
2023/10/27 07:25:14;;;;;;;1.27;0.95;;;22.60;45.90;;;;;;5005080;28;20316;-37
2023/10/27 07:27:43;;;;;;;3.25;1.30;;;22.70;46.00;;;;;;4998149;28;20670;-38
2023/10/27 07:30:09;;;;;;;7.80;1.17;;;22.60;46.00;;;;;;5009195;28;20252;-38
2023/10/27 07:32:36;;;;;;;2.38;1.23;;;22.60;45.70;;;;;;5009825;28;20712;-38
2023/10/27 07:35:03;;;;;;;2.33;1.20;;;22.50;45.50;;;;;;5008740;28;20683;-38
2023/10/27 07:37:29;;;;;;;2.45;1.20;;;22.50;45.40;;;;;;5008226;28;20286;-37
2023/10/27 07:39:56;;;;;;;2.83;1.50;;;22.50;45.40;;;;;;5010394;28;20668;-38
2023/10/27 07:42:23;;;;;;;1.77;1.10;;;22.50;45.40;;;;;;5005137;28;20213;-38
2023/10/27 07:44:49;;;;;;;6.00;1.50;;;22.50;45.40;;;;;;5005597;28;20741;-37
2023/10/27 07:47:15;;;;;;;2.33;1.30;;;22.50;45.40;;;;;;4998816;28;20204;-37
2023/10/27 07:49:42;;;;;;;2.20;1.25;;;22.40;45.30;;;;;;5009942;28;20717;-36
2023/10/27 07:52:09;;;;;;;2.15;1.10;;;22.40;45.20;;;;;;5008572;28;20317;-35
2023/10/27 07:54:35;;;;;;;1.75;1.42;;;22.40;45.50;;;;;;5014066;28;20266;-37
2023/10/27 07:57:03;;;;;;;2.75;1.20;;;22.40;45.20;;;;;;5014082;28;20294;-35
2023/10/27 07:59:29;;;;;;;2.92;1.15;;;22.40;45.20;;;;;;5015676;28;20240;-38
2023/10/27 08:01:57;;;;;;;2.90;1.10;;;22.40;45.20;;;;;;5011664;28;20198;-35
2023/10/27 08:04:24;;;;;;;1.15;1.00;;;22.40;45.10;;;;;;5017293;28;20277;-38
2023/10/27 08:06:50;;;;;;;2.38;1.10;;;22.40;45.10;;;;;;5016789;28;20209;-35
2023/10/27 08:09:17;;;;;;;2.33;1.50;;;22.40;45.10;;;;;;4996481;28;20205;-33
2023/10/27 08:11:43;;;;;;;1.08;1.00;;;22.50;45.20;;;;;;5004079;28;20217;-35
2023/10/27 08:14:09;;;;;;;3.95;1.20;;;22.50;45.20;;;;;;5010125;28;20597;-40
2023/10/27 08:16:36;;;;;;;1.40;1.08;;;22.50;45.20;;;;;;5006427;28;20239;-40
2023/10/27 08:19:02;;;;;;;2.05;1.30;;;22.50;45.40;;;;;;5012957;28;20198;-39
2023/10/27 08:21:29;;;;;;;1.88;1.00;;;22.50;45.20;;;;;;5020911;28;20383;-38
2023/10/27 08:23:55;;;;;;;1.75;1.00;;;22.50;45.30;;;;;;5021172;28;20224;-40
2023/10/27 08:26:22;;;;;;;2.05;1.00;;;22.40;45.20;;;;;;5019303;28;20218;-40
2023/10/27 08:28:48;;;;;;;1.20;1.10;;;22.40;45.30;;;;;;5017871;28;20286;-37
2023/10/27 08:31:16;;;;;;;1.38;1.27;;;22.40;45.20;;;;;;5014925;28;20320;-40
2023/10/27 08:33:43;;;;;;;1.42;1.10;;;22.40;45.30;;;;;;5011569;28;20223;-40
2023/10/27 08:36:11;;;;;;;1.00;1.00;;;22.40;45.20;;;;;;5014251;28;20318;-38
2023/10/27 08:38:37;;;;;;;1.90;1.00;;;22.40;45.20;;;;;;5027464;28;20233;-39
2023/10/27 08:41:05;;;;;;;1.45;1.00;;;22.40;45.20;;;;;;5014221;28;20756;-40
2023/10/27 08:43:31;;;;;;;1.05;0.95;;;22.30;45.10;;;;;;5014367;28;20715;-41
2023/10/27 08:45:58;;;;;;;1.60;0.93;;;22.40;45.00;;;;;;5022376;28;20207;-40
2023/10/27 08:48:24;;;;;;;1.58;0.90;;;22.30;44.90;;;;;;5015734;28;20202;-40
2023/10/27 08:50:51;;;;;;;1.25;1.05;;;22.30;44.90;;;;;;5021148;28;20205;-40
2023/10/27 08:53:17;;;;;;;1.00;0.90;;;22.40;44.80;;;;;;5016575;28;20204;-39
2023/10/27 08:55:44;;;;;;;1.05;0.95;;;22.30;44.80;;;;;;5021265;28;20270;-39
2023/10/27 08:58:10;;;;;;;1.70;1.17;;;22.30;44.70;;;;;;5023686;28;20203;-39
2023/10/27 09:00:37;;;;;;;1.23;1.02;;;22.30;44.70;;;;;;5023398;28;20289;-40
2023/10/27 09:03:04;;;;;;;1.00;0.90;;;22.40;44.70;;;;;;5010237;28;20191;-40
2023/10/27 09:05:32;;;;;;;1.05;1.05;;;22.40;44.70;;;;;;5018389;28;20663;-40
2023/10/27 09:07:58;;;;;;;2.08;1.33;;;22.30;44.70;;;;;;5002400;28;20634;-39
2023/10/27 13:22:26;;;;;;;6.00;3.55;;;22.70;44.40;;;;;;6240204;22;1268840;-44
2023/10/27 13:24:52;;;;;;;5.70;3.28;;;22.70;44.50;;;;;;6239212;23;20227;-46
2023/10/27 13:27:19;;;;;;;7.70;3.38;;;22.70;44.40;;;;;;6241123;23;20205;-47
2023/10/27 13:29:46;;;;;;;4.75;2.80;;;22.70;44.30;;;;;;6243083;23;20252;-47
2023/10/27 13:32:12;;;;;;;9.32;3.15;;;22.70;44.40;;;;;;6243325;22;20197;-44
2023/10/27 13:34:39;;;;;;;6.45;3.60;;;22.70;44.40;;;;;;6241023;23;20252;-47
2023/10/27 13:37:05;;;;;;;6.22;3.13;;;22.70;44.50;;;;;;6240903;23;20181;-44
2023/10/27 13:39:34;;;;;;;6.07;3.03;;;22.70;44.50;;;;;;6240506;23;20274;-45
2023/10/27 13:42:01;;;;;;;6.53;3.45;;;22.70;44.40;;;;;;6240182;22;20228;-44
2023/10/27 13:44:27;;;;;;;4.88;2.95;;;22.70;44.60;;;;;;6242414;23;20231;-46
2023/10/27 13:46:54;;;;;;;4.25;2.65;;;22.70;43.90;;;;;;6243759;23;20196;-49
2023/10/27 13:49:21;;;;;;;8.75;3.47;;;22.70;44.20;;;;;;6243241;23;20205;-49
2023/10/27 13:51:47;;;;;;;4.88;3.10;;;22.70;44.30;;;;;;6244508;22;20188;-48
2023/10/27 13:54:14;;;;;;;4.78;2.40;;;22.70;44.20;;;;;;6243189;23;20177;-48
2023/10/27 13:56:41;;;;;;;4.70;2.63;;;22.70;44.00;;;;;;6243517;23;20236;-47
2023/10/27 13:59:08;;;;;;;5.22;2.25;;;22.70;44.20;;;;;;6243636;23;20177;-47
2023/10/27 14:01:35;;;;;;;4.80;2.22;;;22.70;44.00;;;;;;6242819;22;20177;-46
2023/10/27 14:04:03;;;;;;;3.83;2.20;;;22.70;43.90;;;;;;6240861;23;20204;-49
2023/10/27 14:06:32;;;;;;;3.80;2.85;;;22.70;43.80;;;;;;6243937;23;20209;-45
2023/10/27 14:08:58;;;;;;;4.05;2.60;;;22.70;43.80;;;;;;6241611;23;20261;-43
2023/10/27 14:11:25;;;;;;;2.47;1.85;;;22.70;43.90;;;;;;6236248;23;20177;-50
2023/10/27 14:13:52;;;;;;;2.92;2.00;;;22.20;41.80;;;;;;6243343;22;20659;-48
2023/10/27 14:16:19;;;;;;;3.83;2.08;;;22.40;42.20;;;;;;6242489;23;20264;-47
2023/10/27 14:18:45;;;;;;;2.90;1.90;;;22.50;42.30;;;;;;6243267;23;20235;-48
2023/10/27 14:21:11;;;;;;;4.10;1.95;;;22.60;43.00;;;;;;6244001;23;20272;-50
2023/10/27 14:23:38;;;;;;;2.63;2.10;;;22.60;43.10;;;;;;6242103;22;20264;-46
2023/10/27 14:26:04;;;;;;;1.92;1.70;;;22.70;43.20;;;;;;6241848;23;20260;-41
2023/10/27 14:28:32;;;;;;;3.78;1.98;;;22.70;43.50;;;;;;6243730;23;20236;-41
2023/10/27 14:31:01;;;;;;;3.13;1.88;;;22.60;43.10;;;;;;6241618;23;20184;-39
2023/10/27 14:33:27;;;;;;;3.33;1.80;;;22.70;43.30;;;;;;6243049;22;20192;-41
2023/10/27 14:35:54;;;;;;;5.07;2.45;;;22.70;43.40;;;;;;6242051;23;20212;-40
2023/10/27 14:38:22;;;;;;;2.42;1.60;;;22.70;43.40;;;;;;6243530;23;20213;-41
2023/10/27 14:40:49;;;;;;;2.42;1.85;;;22.70;43.20;;;;;;6241775;23;20177;-38
2023/10/27 14:43:16;;;;;;;3.95;2.00;;;22.70;43.30;;;;;;6242973;22;20221;-39
2023/10/27 14:45:42;;;;;;;2.95;1.80;;;22.70;43.40;;;;;;6242573;23;20199;-47
2023/10/27 14:48:09;;;;;;;2.90;1.60;;;22.70;43.10;;;;;;6241482;23;20196;-47
2023/10/27 14:50:35;;;;;;;2.70;1.50;;;22.70;43.10;;;;;;6239574;23;20181;-44
2023/10/27 14:53:02;;;;;;;3.88;1.80;;;22.70;43.30;;;;;;6241742;22;20194;-47
2023/10/27 14:55:28;;;;;;;2.60;1.63;;;22.70;43.30;;;;;;6241874;23;20260;-44
2023/10/27 14:57:54;;;;;;;2.33;1.40;;;22.70;43.30;;;;;;6243822;23;20256;-47
2023/10/27 15:00:21;;;;;;;2.97;1.77;;;22.70;43.30;;;;;;6241392;23;20256;-46
2023/10/27 15:02:47;;;;;;;2.50;1.60;;;22.70;43.10;;;;;;6238058;22;20279;-43
2023/10/27 15:05:14;;;;;;;1.63;1.40;;;22.70;43.80;;;;;;6166029;23;20675;-45
2023/10/27 15:07:40;;;;;;;2.33;1.50;;;22.70;43.10;;;;;;6152061;23;20234;-47
2023/10/27 15:10:14;;;;;;;2.03;1.20;;;22.70;43.00;;;;;;6152270;23;20181;-44
2023/10/27 15:12:41;;;;;;;2.17;1.40;;;22.70;43.70;;;;;;6131395;23;20223;-41
2023/10/27 15:15:08;;;;;;;1.75;1.20;;;22.70;43.10;;;;;;6122640;23;20259;-42
2023/10/27 15:17:35;;;;;;;2.08;1.33;;;22.70;42.90;;;;;;6123909;23;20175;-45
2023/10/27 15:20:01;;;;;;;2.88;1.67;;;22.70;42.80;;;;;;6124173;23;20175;-39
2023/10/27 15:22:28;;;;;;;2.38;1.45;;;22.70;42.80;;;;;;6119346;23;20255;-43
2023/10/27 15:24:54;;;;;;;2.63;1.77;;;22.70;42.90;;;;;;6124267;23;20182;-50
2023/10/27 15:27:21;;;;;;;2.80;1.55;;;22.70;42.90;;;;;;6124096;23;20207;-46
2023/10/27 15:29:47;;;;;;;1.95;1.35;;;22.70;42.90;;;;;;6123015;23;20286;-37
2023/10/27 15:32:14;;;;;;;1.48;1.38;;;22.70;42.80;;;;;;6120747;23;20231;-38
2023/10/27 15:34:40;;;;;;;1.80;1.30;;;22.70;43.00;;;;;;6122832;23;20541;-40
2023/10/27 15:37:09;;;;;;;3.40;1.40;;;22.70;42.90;;;;;;6124497;23;20180;-36
2023/10/27 15:39:36;;;;;;;3.03;1.55;;;22.70;42.80;;;;;;6123570;23;20184;-36
2023/10/27 15:42:03;;;;;;;2.45;1.60;;;22.70;42.90;;;;;;6123134;23;20225;-36
2023/10/27 15:44:29;;;;;;;1.83;1.50;;;22.70;42.90;;;;;;6123505;23;20234;-46
2023/10/27 15:46:57;;;;;;;2.95;1.25;;;22.70;42.80;;;;;;6121612;23;20176;-38
2023/10/27 15:49:23;;;;;;;1.30;1.20;;;22.70;42.80;;;;;;6121871;23;20691;-38
2023/10/27 15:51:49;;;;;;;1.88;1.30;;;22.70;42.80;;;;;;6123919;23;20589;-38
2023/10/27 15:54:16;;;;;;;2.50;1.67;;;22.60;42.60;;;;;;6122389;23;20238;-39
2023/10/27 15:56:43;;;;;;;1.77;1.40;;;22.60;42.80;;;;;;6123421;23;20243;-38
2023/10/27 15:59:09;;;;;;;1.70;1.17;;;22.60;42.60;;;;;;6116226;23;20260;-38
2023/10/27 16:01:36;;;;;;;1.50;1.00;;;22.60;42.60;;;;;;6123420;23;20275;-41
2023/10/27 16:04:03;;;;;;;1.52;1.35;;;22.60;42.60;;;;;;6123879;23;20238;-45
2023/10/27 16:06:29;;;;;;;2.55;1.52;;;22.50;42.30;;;;;;6122606;23;20180;-42
2023/10/27 16:08:56;;;;;;;1.33;1.20;;;22.60;42.30;;;;;;6114947;23;20195;-35
2023/10/27 16:11:24;;;;;;;1.33;1.15;;;22.60;42.70;;;;;;6124450;23;20187;-33
2023/10/27 16:13:50;;;;;;;1.58;1.30;;;22.60;42.30;;;;;;6123562;23;20180;-35
2023/10/27 16:16:17;;;;;;;1.30;1.10;;;22.60;42.30;;;;;;6121836;23;20475;-37
2023/10/27 16:18:43;;;;;;;1.20;1.10;;;22.60;42.30;;;;;;6121257;23;20634;-36
2023/10/27 16:21:11;;;;;;;1.30;1.20;;;22.60;42.30;;;;;;6123010;23;20242;-36
2023/10/27 16:23:38;;;;;;;1.38;1.27;;;22.60;42.30;;;;;;6120223;23;20168;-35
2023/10/27 16:26:05;;;;;;;1.88;1.02;;;22.60;42.20;;;;;;6123637;23;20176;-34
2023/10/27 16:28:32;;;;;;;1.67;1.20;;;22.60;42.20;;;;;;6121862;23;20286;-38
2023/10/27 16:30:58;;;;;;;1.60;1.50;;;22.60;42.50;;;;;;6123457;23;20251;-40
2023/10/27 16:33:24;;;;;;;1.35;1.10;;;22.60;42.30;;;;;;6123140;23;20196;-39
2023/10/27 16:35:51;;;;;;;1.25;1.15;;;22.70;42.40;;;;;;6122210;23;20255;-40
2023/10/27 16:38:17;;;;;;;1.83;1.30;;;22.70;42.40;;;;;;6122413;23;20263;-40
2023/10/27 16:40:44;;;;;;;1.58;1.40;;;22.70;42.40;;;;;;6123672;23;20262;-43
2023/10/27 16:43:11;;;;;;;1.42;1.33;;;22.70;42.40;;;;;;6123283;23;20195;-40
2023/10/27 16:45:37;;;;;;;1.13;1.05;;;22.70;42.50;;;;;;6124301;23;20263;-40
2023/10/27 16:48:04;;;;;;;1.20;1.10;;;22.70;42.60;;;;;;6118080;23;20176;-45
2023/10/27 16:50:31;;;;;;;2.90;1.23;;;22.70;41.80;;;;;;6122401;23;20176;-45
2023/10/27 16:52:59;;;;;;;1.80;1.42;;;22.70;42.20;;;;;;6122706;23;20196;-41
2023/10/27 16:55:25;;;;;;;1.67;1.30;;;22.60;42.30;;;;;;6123489;23;20168;-42